JAL3132 RJCK-RJGG
Flight info
| Callsign | JAL3132 |
|---|---|
| Flight time | N/A |
| Altitude | 32000 |
| Route | RUGMO Y101 MKE Y14 ARIKA Y12 MBE Y121 SWING |
| Aircraft | B738/M-SDE2E3FGHIRWXY/LB1 |
Departure
| Time | 2026-05-07 11:14 |
|---|---|
| Airport | Kushiro Airport (RJCK) |
Arrival
| Time | N/A |
|---|---|
| Airport | Chubu Centrair International Airport (RJGG) |
| Time | Latitude | Longitude | Altitude | Speed | Heading |
|---|---|---|---|---|---|
| 2026-05-07 11:05 | 43.04500 | 144.19530 | 324 ft | 0 kts | 69° |
| 2026-05-07 11:06 | 43.04497 | 144.19519 | 324 ft | 2 kts | 68° |
| 2026-05-07 11:06 | 43.04492 | 144.19502 | 321 ft | 2 kts | 69° |
| 2026-05-07 11:06 | 43.04487 | 144.19484 | 322 ft | 2 kts | 69° |
| 2026-05-07 11:06 | 43.04482 | 144.19466 | 323 ft | 2 kts | 69° |
| 2026-05-07 11:07 | 43.04477 | 144.19448 | 321 ft | 2 kts | 69° |
| 2026-05-07 11:07 | 43.04472 | 144.19430 | 323 ft | 2 kts | 69° |
| 2026-05-07 11:07 | 43.04467 | 144.19413 | 327 ft | 2 kts | 68° |
| 2026-05-07 11:07 | 43.04462 | 144.19395 | 324 ft | 2 kts | 66° |
| 2026-05-07 11:08 | 43.04456 | 144.19379 | 325 ft | 2 kts | 58° |
| 2026-05-07 11:08 | 43.04450 | 144.19367 | 326 ft | 1 kts | 32° |
| 2026-05-07 11:08 | 43.04443 | 144.19363 | 325 ft | 1 kts | 355° |
| 2026-05-07 11:08 | 43.04437 | 144.19364 | 325 ft | 1 kts | 344° |
| 2026-05-07 11:09 | 43.04432 | 144.19366 | 324 ft | 1 kts | 340° |
| 2026-05-07 11:09 | 43.04431 | 144.19366 | 324 ft | 0 kts | 340° |
| 2026-05-07 11:11 | 43.04441 | 144.19361 | 324 ft | 3 kts | 340° |
| 2026-05-07 11:11 | 43.04476 | 144.19343 | 326 ft | 7 kts | 340° |
| 2026-05-07 11:11 | 43.04542 | 144.19309 | 326 ft | 13 kts | 339° |
| 2026-05-07 11:11 | 43.04642 | 144.19258 | 326 ft | 17 kts | 338° |
| 2026-05-07 11:12 | 43.04758 | 144.19194 | 327 ft | 19 kts | 338° |
| 2026-05-07 11:12 | 43.04892 | 144.19123 | 329 ft | 22 kts | 339° |
| 2026-05-07 11:12 | 43.05030 | 144.19051 | 330 ft | 20 kts | 339° |
| 2026-05-07 11:12 | 43.05132 | 144.18924 | 331 ft | 20 kts | 309° |
| 2026-05-07 11:13 | 43.05138 | 144.18788 | 328 ft | 11 kts | 219° |
| 2026-05-07 11:13 | 43.05069 | 144.18789 | 329 ft | 7 kts | 159° |
| 2026-05-07 11:13 | 43.05068 | 144.18790 | 329 ft | 0 kts | 159° |
| 2026-05-07 11:14 | 43.04928 | 144.18863 | 333 ft | 55 kts | 159° |
| 2026-05-07 11:14 | 43.04338 | 144.19172 | 323 ft | 124 kts | 159° |
| 2026-05-07 11:14 | 43.03341 | 144.19635 | 426 ft | 169 kts | 165° |
| 2026-05-07 11:14 | 43.02223 | 144.20173 | 1219 ft | 167 kts | 174° |
| 2026-05-07 11:15 | 43.01177 | 144.19858 | 2062 ft | 156 kts | 224° |
| 2026-05-07 11:15 | 43.00735 | 144.18464 | 2480 ft | 181 kts | 270° |
| 2026-05-07 11:15 | 43.00927 | 144.16640 | 2682 ft | 207 kts | 276° |
| 2026-05-07 11:15 | 43.01149 | 144.14607 | 3004 ft | 226 kts | 276° |
| 2026-05-07 11:16 | 43.01391 | 144.12373 | 3335 ft | 245 kts | 276° |
| 2026-05-07 11:16 | 43.01643 | 144.10022 | 4053 ft | 251 kts | 276° |
| 2026-05-07 11:16 | 43.01892 | 144.07666 | 4998 ft | 251 kts | 277° |
| 2026-05-07 11:16 | 43.02137 | 144.05315 | 5941 ft | 248 kts | 276° |
| 2026-05-07 11:17 | 43.02375 | 144.03004 | 6876 ft | 247 kts | 276° |
| 2026-05-07 11:17 | 43.02615 | 144.00645 | 7595 ft | 253 kts | 275° |
| 2026-05-07 11:17 | 43.02858 | 143.98243 | 8338 ft | 258 kts | 275° |
| 2026-05-07 11:17 | 43.03103 | 143.95799 | 9094 ft | 262 kts | 275° |
| 2026-05-07 11:18 | 43.03351 | 143.93319 | 9887 ft | 264 kts | 275° |
| 2026-05-07 11:18 | 43.03600 | 143.90809 | 10491 ft | 273 kts | 275° |
| 2026-05-07 11:18 | 43.03862 | 143.88130 | 10651 ft | 297 kts | 275° |
| 2026-05-07 11:18 | 43.04148 | 143.85229 | 10820 ft | 318 kts | 275° |
| 2026-05-07 11:19 | 43.04451 | 143.82130 | 10982 ft | 339 kts | 275° |
| 2026-05-07 11:19 | 43.04774 | 143.78843 | 11134 ft | 358 kts | 275° |
| 2026-05-07 11:19 | 43.05113 | 143.75408 | 11423 ft | 369 kts | 275° |
| 2026-05-07 11:19 | 43.05465 | 143.71913 | 11938 ft | 374 kts | 275° |
| 2026-05-07 11:20 | 43.05809 | 143.68379 | 12586 ft | 375 kts | 275° |
| 2026-05-07 11:20 | 43.06149 | 143.64828 | 13210 ft | 378 kts | 275° |
| 2026-05-07 11:20 | 43.06493 | 143.61248 | 13778 ft | 381 kts | 274° |
| 2026-05-07 11:20 | 43.06838 | 143.57653 | 14320 ft | 383 kts | 274° |
| 2026-05-07 11:21 | 43.07185 | 143.54041 | 14901 ft | 383 kts | 274° |
| 2026-05-07 11:21 | 43.07319 | 143.50419 | 15464 ft | 380 kts | 262° |
| 2026-05-07 11:21 | 43.06763 | 143.46956 | 16032 ft | 378 kts | 249° |
| 2026-05-07 11:21 | 43.05737 | 143.43649 | 16573 ft | 378 kts | 245° |
| 2026-05-07 11:22 | 43.04643 | 143.40383 | 17097 ft | 380 kts | 245° |
| 2026-05-07 11:22 | 43.03527 | 143.37103 | 17620 ft | 381 kts | 245° |
| 2026-05-07 11:22 | 43.02407 | 143.33809 | 18104 ft | 383 kts | 245° |
| 2026-05-07 11:22 | 43.01293 | 143.30508 | 18536 ft | 384 kts | 245° |
| 2026-05-07 11:23 | 43.00539 | 143.28266 | 18832 ft | 384 kts | 245° |
| 2026-05-07 11:23 | 42.99425 | 143.24935 | 19236 ft | 386 kts | 245° |
| 2026-05-07 11:23 | 42.98310 | 143.21589 | 19628 ft | 388 kts | 245° |
| 2026-05-07 11:23 | 42.97191 | 143.18230 | 20008 ft | 389 kts | 245° |
| 2026-05-07 11:24 | 42.96072 | 143.14868 | 20403 ft | 390 kts | 245° |
| 2026-05-07 11:24 | 42.94946 | 143.11486 | 20773 ft | 392 kts | 245° |
| 2026-05-07 11:24 | 42.93814 | 143.08093 | 21117 ft | 394 kts | 246° |
| 2026-05-07 11:24 | 42.92676 | 143.04683 | 21436 ft | 396 kts | 246° |
| 2026-05-07 11:25 | 42.91534 | 143.01266 | 21736 ft | 398 kts | 246° |
| 2026-05-07 11:25 | 42.90382 | 142.97826 | 22057 ft | 399 kts | 246° |
| 2026-05-07 11:25 | 42.89224 | 142.94371 | 22347 ft | 401 kts | 246° |
| 2026-05-07 11:25 | 42.88075 | 142.90946 | 22622 ft | 403 kts | 246° |
| 2026-05-07 11:26 | 42.86906 | 142.87464 | 22841 ft | 405 kts | 246° |
| 2026-05-07 11:26 | 42.85729 | 142.83965 | 23041 ft | 407 kts | 246° |
| 2026-05-07 11:26 | 42.84547 | 142.80452 | 23232 ft | 409 kts | 246° |
| 2026-05-07 11:26 | 42.83341 | 142.76874 | 23432 ft | 411 kts | 246° |
| 2026-05-07 11:27 | 42.82151 | 142.73347 | 23644 ft | 410 kts | 246° |
| 2026-05-07 11:27 | 42.80960 | 142.69817 | 23876 ft | 410 kts | 246° |
| 2026-05-07 11:27 | 42.79781 | 142.66334 | 24113 ft | 410 kts | 246° |
| 2026-05-07 11:27 | 42.78581 | 142.62800 | 24333 ft | 411 kts | 245° |
| 2026-05-07 11:28 | 42.77377 | 142.59268 | 24553 ft | 412 kts | 246° |
| 2026-05-07 11:28 | 42.76176 | 142.55738 | 24797 ft | 412 kts | 246° |
| 2026-05-07 11:28 | 42.74970 | 142.52194 | 24948 ft | 413 kts | 246° |
| 2026-05-07 11:28 | 42.73760 | 142.48640 | 25155 ft | 414 kts | 246° |
| 2026-05-07 11:29 | 42.72547 | 142.45088 | 25392 ft | 413 kts | 246° |
| 2026-05-07 11:29 | 42.71337 | 142.41554 | 25651 ft | 412 kts | 246° |
| 2026-05-07 11:29 | 42.70132 | 142.38031 | 25945 ft | 410 kts | 246° |
| 2026-05-07 11:29 | 42.68933 | 142.34528 | 26297 ft | 407 kts | 246° |
| 2026-05-07 11:30 | 42.67741 | 142.31052 | 26684 ft | 404 kts | 246° |
| 2026-05-07 11:30 | 42.66555 | 142.27599 | 27050 ft | 402 kts | 246° |
| 2026-05-07 11:30 | 42.65377 | 142.24172 | 27375 ft | 401 kts | 246° |
| 2026-05-07 11:30 | 42.64199 | 142.20747 | 27690 ft | 399 kts | 246° |
| 2026-05-07 11:31 | 42.63025 | 142.17342 | 28073 ft | 397 kts | 246° |
| 2026-05-07 11:31 | 42.61859 | 142.13963 | 28502 ft | 393 kts | 246° |
| 2026-05-07 11:31 | 42.60713 | 142.10644 | 28861 ft | 391 kts | 246° |
| 2026-05-07 11:31 | 42.59557 | 142.07300 | 29183 ft | 391 kts | 246° |
| 2026-05-07 11:32 | 42.57253 | 142.00652 | 29895 ft | 388 kts | 246° |
| 2026-05-07 11:32 | 42.56026 | 141.97401 | 30211 ft | 387 kts | 242° |
| 2026-05-07 11:32 | 42.54543 | 141.94351 | 30511 ft | 388 kts | 237° |
| 2026-05-07 11:33 | 42.52801 | 141.91557 | 30806 ft | 390 kts | 232° |
| 2026-05-07 11:33 | 42.50950 | 141.88871 | 31042 ft | 390 kts | 232° |
| 2026-05-07 11:33 | 42.49092 | 141.86180 | 31217 ft | 391 kts | 232° |
| 2026-05-07 11:33 | 42.47232 | 141.83481 | 31393 ft | 392 kts | 232° |
| 2026-05-07 11:34 | 42.45373 | 141.80780 | 31596 ft | 392 kts | 232° |
| 2026-05-07 11:34 | 42.43525 | 141.78093 | 31839 ft | 390 kts | 232° |
| 2026-05-07 11:34 | 42.41674 | 141.75398 | 31827 ft | 391 kts | 232° |
| 2026-05-07 11:35 | 42.37967 | 141.70005 | 31848 ft | 391 kts | 232° |
| 2026-05-07 11:35 | 42.34270 | 141.64632 | 31855 ft | 390 kts | 232° |
| 2026-05-07 11:36 | 42.30566 | 141.59258 | 31854 ft | 391 kts | 232° |
| 2026-05-07 11:36 | 42.26863 | 141.53895 | 31850 ft | 391 kts | 231° |
| 2026-05-07 11:37 | 42.23151 | 141.48531 | 31849 ft | 391 kts | 231° |
| 2026-05-07 11:37 | 42.19432 | 141.43166 | 31849 ft | 391 kts | 231° |
| 2026-05-07 11:38 | 42.15714 | 141.37813 | 31854 ft | 391 kts | 231° |
| 2026-05-07 11:38 | 42.11986 | 141.32455 | 31857 ft | 392 kts | 231° |
| 2026-05-07 11:39 | 42.08260 | 141.27109 | 31848 ft | 392 kts | 231° |
| 2026-05-07 11:39 | 42.04552 | 141.21798 | 31850 ft | 392 kts | 231° |
| 2026-05-07 11:40 | 42.00817 | 141.16459 | 31850 ft | 391 kts | 231° |
| 2026-05-07 11:40 | 41.97086 | 141.11135 | 31853 ft | 391 kts | 231° |
| 2026-05-07 11:41 | 41.93347 | 141.05810 | 31860 ft | 392 kts | 231° |
| 2026-05-07 11:41 | 41.89607 | 141.00493 | 31866 ft | 392 kts | 231° |
| 2026-05-07 11:42 | 41.85852 | 140.95163 | 31902 ft | 395 kts | 231° |
| 2026-05-07 11:42 | 41.82028 | 140.89741 | 31891 ft | 404 kts | 230° |
| 2026-05-07 11:43 | 41.78021 | 140.84361 | 31869 ft | 413 kts | 224° |
| 2026-05-07 11:43 | 41.73151 | 140.80152 | 31890 ft | 422 kts | 213° |
| 2026-05-07 11:44 | 41.67911 | 140.76572 | 31878 ft | 423 kts | 213° |
| 2026-05-07 11:44 | 41.62682 | 140.72990 | 31876 ft | 422 kts | 213° |
| 2026-05-07 11:45 | 41.57470 | 140.69399 | 31873 ft | 421 kts | 213° |
| 2026-05-07 11:45 | 41.52280 | 140.65820 | 31871 ft | 420 kts | 213° |
| 2026-05-07 11:46 | 41.47092 | 140.62245 | 31867 ft | 419 kts | 213° |
| 2026-05-07 11:46 | 41.41917 | 140.58686 | 31871 ft | 419 kts | 213° |
| 2026-05-07 11:47 | 41.36737 | 140.55131 | 31864 ft | 418 kts | 213° |
| 2026-05-07 11:47 | 41.31560 | 140.51583 | 31881 ft | 418 kts | 213° |
| 2026-05-07 11:48 | 41.26390 | 140.48047 | 31875 ft | 418 kts | 213° |
| 2026-05-07 11:48 | 41.21219 | 140.44517 | 31880 ft | 418 kts | 213° |
| 2026-05-07 11:49 | 41.16039 | 140.40987 | 31884 ft | 418 kts | 213° |
| 2026-05-07 11:49 | 41.10853 | 140.37460 | 31880 ft | 419 kts | 213° |
| 2026-05-07 11:50 | 41.05665 | 140.33937 | 31877 ft | 419 kts | 213° |
| 2026-05-07 11:50 | 41.00466 | 140.30413 | 31876 ft | 420 kts | 213° |
| 2026-05-07 11:51 | 40.95272 | 140.26899 | 31875 ft | 420 kts | 213° |
| 2026-05-07 11:51 | 40.90072 | 140.23387 | 31876 ft | 419 kts | 213° |
| 2026-05-07 11:52 | 40.84876 | 140.19884 | 31874 ft | 419 kts | 213° |
| 2026-05-07 11:52 | 40.79678 | 140.16386 | 31888 ft | 419 kts | 212° |
| 2026-05-07 11:53 | 40.74477 | 140.12892 | 31887 ft | 419 kts | 212° |
| 2026-05-07 11:53 | 40.69281 | 140.09407 | 31887 ft | 419 kts | 212° |
| 2026-05-07 11:54 | 40.64117 | 140.05949 | 31902 ft | 419 kts | 212° |
| 2026-05-07 11:54 | 40.58923 | 140.02478 | 31904 ft | 419 kts | 212° |
| 2026-05-07 11:55 | 40.53720 | 139.99006 | 31906 ft | 419 kts | 212° |
| 2026-05-07 11:55 | 40.48512 | 139.95536 | 31900 ft | 420 kts | 212° |
| 2026-05-07 11:56 | 40.43173 | 139.92326 | 31892 ft | 427 kts | 204° |
| 2026-05-07 11:56 | 40.37395 | 139.90352 | 31904 ft | 430 kts | 200° |
| 2026-05-07 11:57 | 40.31593 | 139.88433 | 31905 ft | 430 kts | 200° |
| 2026-05-07 11:57 | 40.25804 | 139.86484 | 31910 ft | 429 kts | 201° |
| 2026-05-07 11:58 | 40.20028 | 139.84528 | 31907 ft | 429 kts | 201° |
| 2026-05-07 11:58 | 40.14248 | 139.82571 | 31917 ft | 429 kts | 200° |
| 2026-05-07 11:59 | 40.08470 | 139.80620 | 31915 ft | 429 kts | 200° |
| 2026-05-07 11:59 | 40.02697 | 139.78674 | 31917 ft | 428 kts | 200° |
| 2026-05-07 12:00 | 39.96925 | 139.76737 | 31911 ft | 428 kts | 200° |
| 2026-05-07 12:00 | 39.91152 | 139.74813 | 31919 ft | 428 kts | 200° |
| 2026-05-07 12:01 | 39.85375 | 139.72890 | 31908 ft | 429 kts | 200° |
| 2026-05-07 12:01 | 39.79585 | 139.70965 | 31919 ft | 429 kts | 200° |
| 2026-05-07 12:02 | 39.73800 | 139.69044 | 31913 ft | 430 kts | 200° |
| 2026-05-07 12:02 | 39.68012 | 139.67126 | 31922 ft | 430 kts | 200° |
| 2026-05-07 12:03 | 39.62212 | 139.65206 | 31930 ft | 430 kts | 200° |
| 2026-05-07 12:03 | 39.56403 | 139.63287 | 31921 ft | 431 kts | 200° |
| 2026-05-07 12:04 | 39.50595 | 139.61372 | 31922 ft | 431 kts | 199° |
| 2026-05-07 12:04 | 39.44772 | 139.59455 | 31918 ft | 432 kts | 199° |
| 2026-05-07 12:05 | 39.38950 | 139.57542 | 31920 ft | 432 kts | 199° |
| 2026-05-07 12:05 | 39.33113 | 139.55627 | 31923 ft | 433 kts | 199° |
| 2026-05-07 12:06 | 39.27270 | 139.53713 | 31925 ft | 433 kts | 199° |
| 2026-05-07 12:06 | 39.22418 | 139.52127 | 31925 ft | 433 kts | 199° |
| 2026-05-07 12:07 | 39.15618 | 139.49907 | 31927 ft | 434 kts | 199° |
| 2026-05-07 12:07 | 39.10723 | 139.48312 | 31924 ft | 434 kts | 199° |
| 2026-05-07 12:08 | 39.04873 | 139.46409 | 31924 ft | 433 kts | 199° |
| 2026-05-07 12:08 | 38.99036 | 139.44513 | 31931 ft | 433 kts | 199° |
| 2026-05-07 12:09 | 38.93199 | 139.42621 | 31928 ft | 432 kts | 199° |
| 2026-05-07 12:09 | 38.87371 | 139.40734 | 31929 ft | 431 kts | 199° |
| 2026-05-07 12:10 | 38.81559 | 139.38856 | 31927 ft | 431 kts | 199° |
| 2026-05-07 12:10 | 38.75753 | 139.36983 | 31931 ft | 430 kts | 199° |
| 2026-05-07 12:11 | 38.69942 | 139.35111 | 31933 ft | 430 kts | 199° |
| 2026-05-07 12:11 | 38.64134 | 139.33244 | 31932 ft | 430 kts | 199° |
| 2026-05-07 12:12 | 38.58332 | 139.31381 | 31930 ft | 430 kts | 199° |
| 2026-05-07 12:12 | 38.52521 | 139.29519 | 31930 ft | 430 kts | 199° |
| 2026-05-07 12:13 | 38.46714 | 139.27661 | 31928 ft | 431 kts | 199° |
| 2026-05-07 12:13 | 38.40931 | 139.25814 | 31930 ft | 431 kts | 199° |
| 2026-05-07 12:14 | 38.35111 | 139.23958 | 31928 ft | 432 kts | 199° |
| 2026-05-07 12:14 | 38.29277 | 139.22101 | 31924 ft | 432 kts | 199° |
| 2026-05-07 12:15 | 38.23436 | 139.20244 | 31936 ft | 433 kts | 199° |
| 2026-05-07 12:15 | 38.17596 | 139.18391 | 31936 ft | 433 kts | 199° |
| 2026-05-07 12:16 | 38.11744 | 139.16537 | 31940 ft | 433 kts | 199° |
| 2026-05-07 12:16 | 38.05897 | 139.14688 | 31936 ft | 433 kts | 199° |
| 2026-05-07 12:17 | 38.00037 | 139.12837 | 31939 ft | 433 kts | 199° |
| 2026-05-07 12:17 | 37.94318 | 139.10565 | 31932 ft | 427 kts | 209° |
| 2026-05-07 12:18 | 37.89107 | 139.07019 | 31931 ft | 425 kts | 212° |
| 2026-05-07 12:18 | 37.83916 | 139.03438 | 31934 ft | 426 kts | 212° |
| 2026-05-07 12:19 | 37.78700 | 138.99880 | 31937 ft | 426 kts | 212° |
| 2026-05-07 12:19 | 37.73472 | 138.96337 | 31937 ft | 426 kts | 211° |
| 2026-05-07 12:20 | 37.68275 | 138.92822 | 31938 ft | 427 kts | 211° |
| 2026-05-07 12:20 | 37.63038 | 138.89285 | 31940 ft | 427 kts | 211° |
| 2026-05-07 12:21 | 37.57800 | 138.85753 | 31945 ft | 427 kts | 211° |
| 2026-05-07 12:21 | 37.52553 | 138.82219 | 31944 ft | 428 kts | 211° |
| 2026-05-07 12:22 | 37.47303 | 138.78689 | 31945 ft | 428 kts | 211° |
| 2026-05-07 12:22 | 37.42054 | 138.75167 | 31945 ft | 428 kts | 211° |
| 2026-05-07 12:23 | 37.36796 | 138.71645 | 31945 ft | 428 kts | 211° |
| 2026-05-07 12:23 | 37.31545 | 138.68134 | 31946 ft | 428 kts | 211° |
| 2026-05-07 12:24 | 37.26284 | 138.64619 | 31953 ft | 428 kts | 211° |
| 2026-05-07 12:24 | 37.21020 | 138.61108 | 31952 ft | 428 kts | 211° |
| 2026-05-07 12:25 | 37.15757 | 138.57602 | 31961 ft | 428 kts | 211° |
| 2026-05-07 12:25 | 37.10495 | 138.54106 | 31957 ft | 428 kts | 211° |
| 2026-05-07 12:26 | 37.05221 | 138.50616 | 31960 ft | 429 kts | 211° |
| 2026-05-07 12:26 | 36.99952 | 138.47134 | 31966 ft | 429 kts | 211° |
| 2026-05-07 12:27 | 36.94672 | 138.43647 | 31969 ft | 429 kts | 211° |
| 2026-05-07 12:27 | 36.89394 | 138.40168 | 31968 ft | 429 kts | 211° |
| 2026-05-07 12:28 | 36.84106 | 138.36686 | 31968 ft | 429 kts | 211° |
| 2026-05-07 12:28 | 36.78817 | 138.33208 | 31959 ft | 429 kts | 211° |
| 2026-05-07 12:29 | 36.73545 | 138.29738 | 31978 ft | 428 kts | 211° |
| 2026-05-07 12:29 | 36.68262 | 138.26266 | 31971 ft | 429 kts | 211° |
| 2026-05-07 12:30 | 36.62977 | 138.22797 | 31973 ft | 430 kts | 211° |
| 2026-05-07 12:30 | 36.57676 | 138.19323 | 31971 ft | 431 kts | 211° |
| 2026-05-07 12:31 | 36.52376 | 138.15854 | 31977 ft | 431 kts | 210° |
| 2026-05-07 12:31 | 36.47067 | 138.12385 | 31937 ft | 431 kts | 211° |
| 2026-05-07 12:32 | 36.41770 | 138.08936 | 31981 ft | 430 kts | 210° |
| 2026-05-07 12:32 | 36.36467 | 138.05497 | 31976 ft | 431 kts | 210° |
| 2026-05-07 12:33 | 36.28472 | 138.00318 | 31987 ft | 433 kts | 210° |
| 2026-05-07 12:33 | 36.23124 | 137.96859 | 31973 ft | 434 kts | 210° |
| 2026-05-07 12:34 | 36.17772 | 137.93402 | 31979 ft | 434 kts | 210° |
| 2026-05-07 12:34 | 36.12651 | 137.89519 | 31983 ft | 426 kts | 217° |
| 2026-05-07 12:35 | 36.10286 | 137.87432 | 31963 ft | 408 kts | 218° |
| 2026-05-07 12:35 | 36.08020 | 137.85433 | 31970 ft | 392 kts | 218° |
| 2026-05-07 12:35 | 36.05837 | 137.83516 | 31973 ft | 377 kts | 218° |
| 2026-05-07 12:35 | 36.03734 | 137.81677 | 31976 ft | 363 kts | 218° |
| 2026-05-07 12:36 | 36.01734 | 137.79933 | 31975 ft | 351 kts | 218° |
| 2026-05-07 12:36 | 35.99777 | 137.78229 | 31976 ft | 338 kts | 218° |
| 2026-05-07 12:36 | 35.97893 | 137.76591 | 31971 ft | 326 kts | 218° |
| 2026-05-07 12:36 | 35.96075 | 137.75011 | 31981 ft | 314 kts | 218° |
| 2026-05-07 12:37 | 35.92479 | 137.71884 | 32018 ft | 323 kts | 218° |
| 2026-05-07 12:37 | 35.88707 | 137.68613 | 32020 ft | 339 kts | 217° |
| 2026-05-07 12:38 | 35.84846 | 137.65280 | 32011 ft | 337 kts | 217° |
| 2026-05-07 12:38 | 35.82906 | 137.63607 | 31908 ft | 333 kts | 217° |
| 2026-05-07 12:38 | 35.81019 | 137.61980 | 31557 ft | 331 kts | 217° |
| 2026-05-07 12:39 | 35.79166 | 137.60381 | 31143 ft | 331 kts | 217° |
| 2026-05-07 12:39 | 35.77274 | 137.58749 | 30686 ft | 333 kts | 217° |
| 2026-05-07 12:39 | 35.75364 | 137.57102 | 30176 ft | 337 kts | 217° |
| 2026-05-07 12:39 | 35.73424 | 137.55430 | 29316 ft | 346 kts | 217° |
| 2026-05-07 12:40 | 35.71399 | 137.53686 | 28094 ft | 365 kts | 217° |
| 2026-05-07 12:40 | 35.69262 | 137.51845 | 26751 ft | 385 kts | 217° |
| 2026-05-07 12:40 | 35.67012 | 137.49906 | 25410 ft | 405 kts | 217° |
| 2026-05-07 12:40 | 35.64661 | 137.47882 | 24164 ft | 420 kts | 217° |
| 2026-05-07 12:41 | 35.62233 | 137.45795 | 23081 ft | 429 kts | 217° |
| 2026-05-07 12:41 | 35.59789 | 137.43697 | 22301 ft | 426 kts | 217° |
| 2026-05-07 12:41 | 35.57382 | 137.41633 | 21716 ft | 419 kts | 217° |
| 2026-05-07 12:41 | 35.55011 | 137.39599 | 21079 ft | 413 kts | 217° |
| 2026-05-07 12:42 | 35.52664 | 137.37587 | 20433 ft | 410 kts | 217° |
| 2026-05-07 12:42 | 35.50340 | 137.35595 | 19760 ft | 406 kts | 217° |
| 2026-05-07 12:42 | 35.48031 | 137.33616 | 19148 ft | 403 kts | 217° |
| 2026-05-07 12:42 | 35.45747 | 137.31659 | 18549 ft | 399 kts | 217° |